sensor_id;sensor_type;location;lat;lon;timestamp;temperature;humidity
45137;DHT22;30894;51.740;19.498;2023-07-29T00:01:03;15.70;99.90
45137;DHT22;30894;51.740;19.498;2023-07-29T00:03:29;15.70;99.90
45137;DHT22;30894;51.740;19.498;2023-07-29T00:05:56;15.70;99.90
45137;DHT22;30894;51.740;19.498;2023-07-29T00:08:22;15.70;99.90
45137;DHT22;30894;51.740;19.498;2023-07-29T00:10:49;15.70;99.90
45137;DHT22;30894;51.740;19.498;2023-07-29T00:13:15;15.60;99.90
45137;DHT22;30894;51.740;19.498;2023-07-29T00:15:41;15.60;99.90
45137;DHT22;30894;51.740;19.498;2023-07-29T00:18:07;15.60;99.90
45137;DHT22;30894;51.740;19.498;2023-07-29T00:20:34;15.50;99.90
45137;DHT22;30894;51.740;19.498;2023-07-29T00:23:00;15.50;99.90
45137;DHT22;30894;51.740;19.498;2023-07-29T00:25:27;15.60;99.90
45137;DHT22;30894;51.740;19.498;2023-07-29T00:27:56;15.50;99.90
45137;DHT22;30894;51.740;19.498;2023-07-29T00:30:25;15.60;99.90
45137;DHT22;30894;51.740;19.498;2023-07-29T00:32:51;15.60;99.90
45137;DHT22;30894;51.740;19.498;2023-07-29T00:35:18;15.60;99.90
45137;DHT22;30894;51.740;19.498;2023-07-29T00:37:47;15.60;99.90
45137;DHT22;30894;51.740;19.498;2023-07-29T00:40:18;15.60;99.90
45137;DHT22;30894;51.740;19.498;2023-07-29T00:42:48;15.70;99.90
45137;DHT22;30894;51.740;19.498;2023-07-29T00:45:16;15.70;99.90
45137;DHT22;30894;51.740;19.498;2023-07-29T00:47:42;15.70;99.90
45137;DHT22;30894;51.740;19.498;2023-07-29T00:50:13;15.70;99.90
45137;DHT22;30894;51.740;19.498;2023-07-29T00:52:46;15.70;99.90
45137;DHT22;30894;51.740;19.498;2023-07-29T00:55:16;15.80;99.90
45137;DHT22;30894;51.740;19.498;2023-07-29T00:57:43;15.70;99.90
45137;DHT22;30894;51.740;19.498;2023-07-29T01:00:16;15.70;99.90
45137;DHT22;30894;51.740;19.498;2023-07-29T01:02:43;15.70;99.90
45137;DHT22;30894;51.740;19.498;2023-07-29T01:05:13;15.70;99.90
45137;DHT22;30894;51.740;19.498;2023-07-29T01:07:55;15.70;99.90
45137;DHT22;30894;51.740;19.498;2023-07-29T01:13:44;15.70;99.90
45137;DHT22;30894;51.740;19.498;2023-07-29T01:16:31;15.60;99.90
45137;DHT22;30894;51.740;19.498;2023-07-29T01:19:06;15.60;99.90
45137;DHT22;30894;51.740;19.498;2023-07-29T01:21:35;15.60;99.90
45137;DHT22;30894;51.740;19.498;2023-07-29T01:24:04;15.60;99.90
45137;DHT22;30894;51.740;19.498;2023-07-29T01:26:30;15.50;99.90
45137;DHT22;30894;51.740;19.498;2023-07-29T01:28:58;15.50;99.90
45137;DHT22;30894;51.740;19.498;2023-07-29T01:31:32;15.40;99.90
45137;DHT22;30894;51.740;19.498;2023-07-29T01:34:26;15.30;99.90
45137;DHT22;30894;51.740;19.498;2023-07-29T01:36:57;15.30;99.90
45137;DHT22;30894;51.740;19.498;2023-07-29T01:39:26;15.20;99.90
45137;DHT22;30894;51.740;19.498;2023-07-29T01:41:55;15.20;99.90
45137;DHT22;30894;51.740;19.498;2023-07-29T01:44:26;15.10;99.90
45137;DHT22;30894;51.740;19.498;2023-07-29T01:47:02;15.10;99.90
45137;DHT22;30894;51.740;19.498;2023-07-29T01:49:28;15.10;99.90
45137;DHT22;30894;51.740;19.498;2023-07-29T01:51:55;15.20;99.90
45137;DHT22;30894;51.740;19.498;2023-07-29T01:54:21;15.20;99.90
45137;DHT22;30894;51.740;19.498;2023-07-29T01:56:47;15.30;99.90
45137;DHT22;30894;51.740;19.498;2023-07-29T01:59:14;15.40;99.90
45137;DHT22;30894;51.740;19.498;2023-07-29T02:01:51;15.50;99.90
45137;DHT22;30894;51.740;19.498;2023-07-29T02:04:20;15.50;99.90
45137;DHT22;30894;51.740;19.498;2023-07-29T02:06:48;15.50;99.90
45137;DHT22;30894;51.740;19.498;2023-07-29T02:09:14;15.50;99.90
45137;DHT22;30894;51.740;19.498;2023-07-29T02:11:40;15.60;99.90
45137;DHT22;30894;51.740;19.498;2023-07-29T02:14:06;15.60;99.90
45137;DHT22;30894;51.740;19.498;2023-07-29T02:16:33;15.60;99.90
45137;DHT22;30894;51.740;19.498;2023-07-29T02:19:00;15.60;99.90
45137;DHT22;30894;51.740;19.498;2023-07-29T02:21:26;15.60;99.90
45137;DHT22;30894;51.740;19.498;2023-07-29T02:23:52;15.70;99.90
45137;DHT22;30894;51.740;19.498;2023-07-29T02:26:22;15.60;99.90
45137;DHT22;30894;51.740;19.498;2023-07-29T02:28:48;15.60;99.90
45137;DHT22;30894;51.740;19.498;2023-07-29T02:31:21;15.50;99.90
45137;DHT22;30894;51.740;19.498;2023-07-29T02:33:49;15.50;99.90
45137;DHT22;30894;51.740;19.498;2023-07-29T02:36:17;15.30;99.90
45137;DHT22;30894;51.740;19.498;2023-07-29T02:38:44;15.30;99.90
45137;DHT22;30894;51.740;19.498;2023-07-29T02:41:11;15.20;99.90
45137;DHT22;30894;51.740;19.498;2023-07-29T02:43:42;15.20;99.90
45137;DHT22;30894;51.740;19.498;2023-07-29T02:46:09;15.10;99.90
45137;DHT22;30894;51.740;19.498;2023-07-29T02:48:35;15.00;99.90
45137;DHT22;30894;51.740;19.498;2023-07-29T02:51:02;14.90;99.90
45137;DHT22;30894;51.740;19.498;2023-07-29T02:53:28;14.90;99.90
45137;DHT22;30894;51.740;19.498;2023-07-29T02:55:54;14.80;99.90
45137;DHT22;30894;51.740;19.498;2023-07-29T02:58:20;14.70;99.90
45137;DHT22;30894;51.740;19.498;2023-07-29T03:00:47;14.60;99.90
45137;DHT22;30894;51.740;19.498;2023-07-29T03:03:14;14.50;99.90
45137;DHT22;30894;51.740;19.498;2023-07-29T03:05:41;14.40;99.90
45137;DHT22;30894;51.740;19.498;2023-07-29T03:08:07;14.40;99.90
45137;DHT22;30894;51.740;19.498;2023-07-29T03:10:35;14.40;99.90
45137;DHT22;30894;51.740;19.498;2023-07-29T03:13:01;14.30;99.90
45137;DHT22;30894;51.740;19.498;2023-07-29T03:15:28;14.30;99.90
45137;DHT22;30894;51.740;19.498;2023-07-29T03:17:54;14.30;99.90
45137;DHT22;30894;51.740;19.498;2023-07-29T03:20:21;14.30;99.90
45137;DHT22;30894;51.740;19.498;2023-07-29T03:22:47;14.30;99.90
45137;DHT22;30894;51.740;19.498;2023-07-29T03:25:14;14.20;99.90
45137;DHT22;30894;51.740;19.498;2023-07-29T03:27:40;14.20;99.90
45137;DHT22;30894;51.740;19.498;2023-07-29T03:30:07;14.20;99.90
45137;DHT22;30894;51.740;19.498;2023-07-29T03:32:34;14.10;99.90
45137;DHT22;30894;51.740;19.498;2023-07-29T03:35:00;14.10;99.90
45137;DHT22;30894;51.740;19.498;2023-07-29T03:37:26;14.00;99.90
45137;DHT22;30894;51.740;19.498;2023-07-29T03:39:52;14.10;99.90
45137;DHT22;30894;51.740;19.498;2023-07-29T03:42:19;14.10;99.90
45137;DHT22;30894;51.740;19.498;2023-07-29T03:44:46;14.10;99.90
45137;DHT22;30894;51.740;19.498;2023-07-29T03:47:11;14.10;99.90
45137;DHT22;30894;51.740;19.498;2023-07-29T03:49:38;14.10;99.90
45137;DHT22;30894;51.740;19.498;2023-07-29T03:52:04;14.20;99.90
45137;DHT22;30894;51.740;19.498;2023-07-29T03:54:31;14.20;99.90
45137;DHT22;30894;51.740;19.498;2023-07-29T03:56:58;14.20;99.90
45137;DHT22;30894;51.740;19.498;2023-07-29T03:59:27;14.10;99.90
45137;DHT22;30894;51.740;19.498;2023-07-29T04:01:53;14.20;99.90
45137;DHT22;30894;51.740;19.498;2023-07-29T04:04:19;14.20;99.90
45137;DHT22;30894;51.740;19.498;2023-07-29T04:06:46;14.20;99.90
45137;DHT22;30894;51.740;19.498;2023-07-29T04:09:12;14.20;99.90
45137;DHT22;30894;51.740;19.498;2023-07-29T04:11:41;14.30;99.90
45137;DHT22;30894;51.740;19.498;2023-07-29T04:14:07;14.40;99.90
45137;DHT22;30894;51.740;19.498;2023-07-29T04:16:33;14.50;99.90
45137;DHT22;30894;51.740;19.498;2023-07-29T04:19:01;14.50;99.90
45137;DHT22;30894;51.740;19.498;2023-07-29T04:21:27;14.50;99.90
45137;DHT22;30894;51.740;19.498;2023-07-29T04:23:54;14.60;99.90
45137;DHT22;30894;51.740;19.498;2023-07-29T04:26:20;14.70;99.90
45137;DHT22;30894;51.740;19.498;2023-07-29T04:28:47;14.80;99.90
45137;DHT22;30894;51.740;19.498;2023-07-29T04:31:16;14.90;99.90
45137;DHT22;30894;51.740;19.498;2023-07-29T04:33:42;15.10;99.90
45137;DHT22;30894;51.740;19.498;2023-07-29T04:36:08;15.30;99.90
45137;DHT22;30894;51.740;19.498;2023-07-29T04:38:37;15.50;99.90
45137;DHT22;30894;51.740;19.498;2023-07-29T04:41:03;15.70;99.90
45137;DHT22;30894;51.740;19.498;2023-07-29T04:43:33;15.90;99.90
45137;DHT22;30894;51.740;19.498;2023-07-29T04:45:59;16.00;99.90
45137;DHT22;30894;51.740;19.498;2023-07-29T04:48:26;16.10;99.90
45137;DHT22;30894;51.740;19.498;2023-07-29T04:50:51;16.10;99.90
45137;DHT22;30894;51.740;19.498;2023-07-29T04:53:18;16.20;99.90
45137;DHT22;30894;51.740;19.498;2023-07-29T04:55:44;16.40;99.90
45137;DHT22;30894;51.740;19.498;2023-07-29T04:58:11;16.70;99.90
45137;DHT22;30894;51.740;19.498;2023-07-29T05:00:37;16.80;99.90
45137;DHT22;30894;51.740;19.498;2023-07-29T05:03:03;17.00;99.90
45137;DHT22;30894;51.740;19.498;2023-07-29T05:05:29;17.20;99.90
45137;DHT22;30894;51.740;19.498;2023-07-29T05:07:56;17.40;99.90
45137;DHT22;30894;51.740;19.498;2023-07-29T05:10:22;17.40;99.90
45137;DHT22;30894;51.740;19.498;2023-07-29T05:12:48;17.50;99.90
45137;DHT22;30894;51.740;19.498;2023-07-29T05:15:15;17.60;99.90
45137;DHT22;30894;51.740;19.498;2023-07-29T05:17:41;17.70;99.90
45137;DHT22;30894;51.740;19.498;2023-07-29T05:20:07;17.80;99.90
45137;DHT22;30894;51.740;19.498;2023-07-29T05:22:34;17.90;99.90
45137;DHT22;30894;51.740;19.498;2023-07-29T05:25:00;17.90;99.90
45137;DHT22;30894;51.740;19.498;2023-07-29T05:27:26;17.90;99.90
45137;DHT22;30894;51.740;19.498;2023-07-29T05:29:52;18.10;99.90
45137;DHT22;30894;51.740;19.498;2023-07-29T05:32:19;18.20;99.90
45137;DHT22;30894;51.740;19.498;2023-07-29T05:34:45;18.30;99.90
45137;DHT22;30894;51.740;19.498;2023-07-29T05:37:11;18.40;99.90
45137;DHT22;30894;51.740;19.498;2023-07-29T05:39:37;18.40;99.90
45137;DHT22;30894;51.740;19.498;2023-07-29T05:42:04;18.60;99.90
45137;DHT22;30894;51.740;19.498;2023-07-29T05:44:31;18.80;99.90
45137;DHT22;30894;51.740;19.498;2023-07-29T05:46:58;19.00;99.90
45137;DHT22;30894;51.740;19.498;2023-07-29T05:49:24;19.20;99.90
45137;DHT22;30894;51.740;19.498;2023-07-29T05:51:52;19.30;99.90
45137;DHT22;30894;51.740;19.498;2023-07-29T05:54:19;19.40;99.90
45137;DHT22;30894;51.740;19.498;2023-07-29T05:56:46;19.70;99.90
45137;DHT22;30894;51.740;19.498;2023-07-29T05:59:12;20.10;99.90
45137;DHT22;30894;51.740;19.498;2023-07-29T06:01:38;20.90;99.90
45137;DHT22;30894;51.740;19.498;2023-07-29T06:04:04;21.80;99.90
45137;DHT22;30894;51.740;19.498;2023-07-29T06:06:30;22.40;99.90
45137;DHT22;30894;51.740;19.498;2023-07-29T06:08:56;22.60;99.90
45137;DHT22;30894;51.740;19.498;2023-07-29T06:11:24;22.60;99.90
45137;DHT22;30894;51.740;19.498;2023-07-29T06:13:50;22.40;99.90
45137;DHT22;30894;51.740;19.498;2023-07-29T06:16:16;22.20;99.90
45137;DHT22;30894;51.740;19.498;2023-07-29T06:18:45;21.90;99.90
45137;DHT22;30894;51.740;19.498;2023-07-29T06:21:12;21.60;99.90
45137;DHT22;30894;51.740;19.498;2023-07-29T06:23:43;21.30;99.90
45137;DHT22;30894;51.740;19.498;2023-07-29T06:26:12;21.20;99.90
45137;DHT22;30894;51.740;19.498;2023-07-29T06:28:38;21.10;99.90
45137;DHT22;30894;51.740;19.498;2023-07-29T06:31:04;21.70;99.90
45137;DHT22;30894;51.740;19.498;2023-07-29T06:33:31;22.70;99.90
45137;DHT22;30894;51.740;19.498;2023-07-29T06:35:58;23.20;99.90
45137;DHT22;30894;51.740;19.498;2023-07-29T06:38:24;23.10;99.90
45137;DHT22;30894;51.740;19.498;2023-07-29T06:40:50;22.90;99.90
45137;DHT22;30894;51.740;19.498;2023-07-29T06:43:17;22.70;99.90
45137;DHT22;30894;51.740;19.498;2023-07-29T06:45:43;22.90;99.90
45137;DHT22;30894;51.740;19.498;2023-07-29T06:48:09;23.60;99.90
45137;DHT22;30894;51.740;19.498;2023-07-29T06:50:35;24.20;99.90
45137;DHT22;30894;51.740;19.498;2023-07-29T06:53:01;24.00;99.90
45137;DHT22;30894;51.740;19.498;2023-07-29T06:55:27;23.40;99.90
45137;DHT22;30894;51.740;19.498;2023-07-29T06:57:53;22.90;99.90
45137;DHT22;30894;51.740;19.498;2023-07-29T07:00:20;23.20;99.90
45137;DHT22;30894;51.740;19.498;2023-07-29T07:02:47;24.10;99.90
45137;DHT22;30894;51.740;19.498;2023-07-29T07:05:13;25.20;99.90
45137;DHT22;30894;51.740;19.498;2023-07-29T07:07:39;26.00;99.90
45137;DHT22;30894;51.740;19.498;2023-07-29T07:10:06;26.20;99.90
45137;DHT22;30894;51.740;19.498;2023-07-29T07:12:32;25.80;99.90
45137;DHT22;30894;51.740;19.498;2023-07-29T07:14:59;25.60;99.90
45137;DHT22;30894;51.740;19.498;2023-07-29T07:17:25;25.60;99.90
45137;DHT22;30894;51.740;19.498;2023-07-29T07:19:55;25.40;99.90
45137;DHT22;30894;51.740;19.498;2023-07-29T07:22:21;25.20;99.90
45137;DHT22;30894;51.740;19.498;2023-07-29T07:24:47;25.40;99.90
45137;DHT22;30894;51.740;19.498;2023-07-29T07:27:13;25.60;99.90
45137;DHT22;30894;51.740;19.498;2023-07-29T07:29:40;25.70;99.90
45137;DHT22;30894;51.740;19.498;2023-07-29T07:32:06;26.00;99.90
45137;DHT22;30894;51.740;19.498;2023-07-29T07:34:33;26.50;99.90
45137;DHT22;30894;51.740;19.498;2023-07-29T07:37:00;27.10;99.90
45137;DHT22;30894;51.740;19.498;2023-07-29T07:39:27;27.50;99.90
45137;DHT22;30894;51.740;19.498;2023-07-29T07:41:52;27.40;99.90
45137;DHT22;30894;51.740;19.498;2023-07-29T07:44:19;27.60;99.90
45137;DHT22;30894;51.740;19.498;2023-07-29T07:46:45;27.90;99.90
45137;DHT22;30894;51.740;19.498;2023-07-29T07:49:12;28.90;99.80
45137;DHT22;30894;51.740;19.498;2023-07-29T07:51:39;30.30;96.60
45137;DHT22;30894;51.740;19.498;2023-07-29T07:54:05;31.40;93.60
45137;DHT22;30894;51.740;19.498;2023-07-29T07:56:32;31.40;92.20
45137;DHT22;30894;51.740;19.498;2023-07-29T07:58:58;31.00;92.40
45137;DHT22;30894;51.740;19.498;2023-07-29T08:01:24;30.90;92.80
45137;DHT22;30894;51.740;19.498;2023-07-29T08:03:50;31.30;92.70
45137;DHT22;30894;51.740;19.498;2023-07-29T08:06:16;31.90;91.60
45137;DHT22;30894;51.740;19.498;2023-07-29T08:08:43;32.50;90.80
45137;DHT22;30894;51.740;19.498;2023-07-29T08:11:09;32.70;90.30
45137;DHT22;30894;51.740;19.498;2023-07-29T08:13:35;33.70;88.10
45137;DHT22;30894;51.740;19.498;2023-07-29T08:16:01;35.20;83.80
45137;DHT22;30894;51.740;19.498;2023-07-29T08:18:27;36.80;79.30
45137;DHT22;30894;51.740;19.498;2023-07-29T08:20:55;37.60;76.00
45137;DHT22;30894;51.740;19.498;2023-07-29T08:23:27;38.40;73.40
45137;DHT22;30894;51.740;19.498;2023-07-29T08:25:54;37.60;73.30
45137;DHT22;30894;51.740;19.498;2023-07-29T08:28:23;36.50;75.30
45137;DHT22;30894;51.740;19.498;2023-07-29T08:30:49;35.50;77.80
45137;DHT22;30894;51.740;19.498;2023-07-29T08:33:22;34.70;80.20
45137;DHT22;30894;51.740;19.498;2023-07-29T08:35:51;34.20;82.30
45137;DHT22;30894;51.740;19.498;2023-07-29T08:38:18;34.20;82.90
45137;DHT22;30894;51.740;19.498;2023-07-29T08:46:24;32.80;87.10
45137;DHT22;30894;51.740;19.498;2023-07-29T08:48:51;33.70;85.10
45137;DHT22;30894;51.740;19.498;2023-07-29T08:51:17;34.30;83.60
45137;DHT22;30894;51.740;19.498;2023-07-29T08:53:46;34.00;83.50
45137;DHT22;30894;51.740;19.498;2023-07-29T08:56:12;33.40;84.80
45137;DHT22;30894;51.740;19.498;2023-07-29T08:58:40;32.50;87.40
45137;DHT22;30894;51.740;19.498;2023-07-29T09:01:06;32.00;89.20
45137;DHT22;30894;51.740;19.498;2023-07-29T09:03:33;32.80;88.20
45137;DHT22;30894;51.740;19.498;2023-07-29T09:05:59;34.50;84.10
45137;DHT22;30894;51.740;19.498;2023-07-29T09:08:26;35.60;80.80
45137;DHT22;30894;51.740;19.498;2023-07-29T09:10:53;37.30;76.30
45137;DHT22;30894;51.740;19.498;2023-07-29T09:13:21;38.40;72.20
45137;DHT22;30894;51.740;19.498;2023-07-29T09:15:48;37.40;72.60
45137;DHT22;30894;51.740;19.498;2023-07-29T09:18:16;37.10;73.40
45137;DHT22;30894;51.740;19.498;2023-07-29T09:20:48;37.40;72.90
45137;DHT22;30894;51.740;19.498;2023-07-29T09:23:15;38.10;71.20
45137;DHT22;30894;51.740;19.498;2023-07-29T09:25:42;38.10;71.00
45137;DHT22;30894;51.740;19.498;2023-07-29T09:28:13;37.30;71.70
45137;DHT22;30894;51.740;19.498;2023-07-29T09:30:43;36.30;73.20
45137;DHT22;30894;51.740;19.498;2023-07-29T09:33:18;36.00;73.70
45137;DHT22;30894;51.740;19.498;2023-07-29T09:35:47;37.10;72.20
45137;DHT22;30894;51.740;19.498;2023-07-29T09:38:14;37.00;71.90
45137;DHT22;30894;51.740;19.498;2023-07-29T09:40:41;36.00;73.10
45137;DHT22;30894;51.740;19.498;2023-07-29T09:43:09;34.90;74.70
45137;DHT22;30894;51.740;19.498;2023-07-29T09:45:37;34.30;76.10
45137;DHT22;30894;51.740;19.498;2023-07-29T09:48:04;34.40;75.70
45137;DHT22;30894;51.740;19.498;2023-07-29T09:50:34;34.60;75.30
45137;DHT22;30894;51.740;19.498;2023-07-29T09:53:02;35.00;74.30
45137;DHT22;30894;51.740;19.498;2023-07-29T09:55:32;34.40;75.20
45137;DHT22;30894;51.740;19.498;2023-07-29T09:58:00;34.70;74.80
45137;DHT22;30894;51.740;19.498;2023-07-29T10:00:30;35.70;72.40
45137;DHT22;30894;51.740;19.498;2023-07-29T10:02:58;36.30;70.10
45137;DHT22;30894;51.740;19.498;2023-07-29T10:05:28;37.20;68.80
45137;DHT22;30894;51.740;19.498;2023-07-29T10:07:56;38.10;66.50
45137;DHT22;30894;51.740;19.498;2023-07-29T10:10:22;38.50;65.50
45137;DHT22;30894;51.740;19.498;2023-07-29T10:12:49;38.70;64.40
45137;DHT22;30894;51.740;19.498;2023-07-29T10:15:15;39.20;64.10
45137;DHT22;30894;51.740;19.498;2023-07-29T10:17:42;39.70;63.10
45137;DHT22;30894;51.740;19.498;2023-07-29T10:20:11;40.00;62.40
45137;DHT22;30894;51.740;19.498;2023-07-29T10:22:39;39.80;62.00
45137;DHT22;30894;51.740;19.498;2023-07-29T10:25:18;39.10;62.90
45137;DHT22;30894;51.740;19.498;2023-07-29T10:27:53;39.00;63.00
45137;DHT22;30894;51.740;19.498;2023-07-29T10:30:30;38.00;64.20
45137;DHT22;30894;51.740;19.498;2023-07-29T10:33:05;37.50;65.50
45137;DHT22;30894;51.740;19.498;2023-07-29T10:35:33;37.90;64.90
45137;DHT22;30894;51.740;19.498;2023-07-29T10:38:00;38.70;63.70
45137;DHT22;30894;51.740;19.498;2023-07-29T10:40:47;39.70;62.30
45137;DHT22;30894;51.740;19.498;2023-07-29T10:43:40;40.30;61.40
45137;DHT22;30894;51.740;19.498;2023-07-29T10:46:23;41.00;60.10
45137;DHT22;30894;51.740;19.498;2023-07-29T10:48:56;41.00;59.40
45137;DHT22;30894;51.740;19.498;2023-07-29T10:54:01;39.10;61.90
45137;DHT22;30894;51.740;19.498;2023-07-29T10:56:33;38.70;62.70
45137;DHT22;30894;51.740;19.498;2023-07-29T10:59:33;38.60;62.60
45137;DHT22;30894;51.740;19.498;2023-07-29T11:02:00;38.80;62.90
45137;DHT22;30894;51.740;19.498;2023-07-29T11:04:31;39.40;61.40
45137;DHT22;30894;51.740;19.498;2023-07-29T11:15:26;42.40;57.70
45137;DHT22;30894;51.740;19.498;2023-07-29T11:17:59;42.40;57.10
45137;DHT22;30894;51.740;19.498;2023-07-29T11:20:33;41.30;57.80
45137;DHT22;30894;51.740;19.498;2023-07-29T11:23:01;40.00;60.10
45137;DHT22;30894;51.740;19.498;2023-07-29T11:25:29;39.20;61.50
45137;DHT22;30894;51.740;19.498;2023-07-29T11:27:57;39.30;61.20
45137;DHT22;30894;51.740;19.498;2023-07-29T11:30:24;38.50;62.10
45137;DHT22;30894;51.740;19.498;2023-07-29T11:32:55;38.30;62.40
45137;DHT22;30894;51.740;19.498;2023-07-29T11:35:22;39.00;61.40
45137;DHT22;30894;51.740;19.498;2023-07-29T11:37:55;39.30;60.80
45137;DHT22;30894;51.740;19.498;2023-07-29T11:40:24;39.70;59.50
45137;DHT22;30894;51.740;19.498;2023-07-29T11:42:51;40.00;58.80
45137;DHT22;30894;51.740;19.498;2023-07-29T11:45:19;40.20;58.50
45137;DHT22;30894;51.740;19.498;2023-07-29T11:47:49;40.40;58.30
45137;DHT22;30894;51.740;19.498;2023-07-29T11:50:15;40.40;58.30
45137;DHT22;30894;51.740;19.498;2023-07-29T11:52:46;40.10;58.40
45137;DHT22;30894;51.740;19.498;2023-07-29T11:55:14;39.30;59.30
45137;DHT22;30894;51.740;19.498;2023-07-29T11:57:41;39.70;59.30
45137;DHT22;30894;51.740;19.498;2023-07-29T12:00:09;40.60;58.20
45137;DHT22;30894;51.740;19.498;2023-07-29T12:02:42;40.70;58.10
45137;DHT22;30894;51.740;19.498;2023-07-29T12:05:13;39.80;58.20
45137;DHT22;30894;51.740;19.498;2023-07-29T12:07:43;38.60;59.70
45137;DHT22;30894;51.740;19.498;2023-07-29T12:10:10;38.40;60.30
45137;DHT22;30894;51.740;19.498;2023-07-29T12:12:50;38.80;59.70
45137;DHT22;30894;51.740;19.498;2023-07-29T12:15:26;39.70;59.10
45137;DHT22;30894;51.740;19.498;2023-07-29T12:17:55;40.10;57.50
45137;DHT22;30894;51.740;19.498;2023-07-29T12:20:25;40.50;56.70
45137;DHT22;30894;51.740;19.498;2023-07-29T12:22:56;40.90;55.90
45137;DHT22;30894;51.740;19.498;2023-07-29T12:25:23;40.90;55.50
45137;DHT22;30894;51.740;19.498;2023-07-29T12:27:49;40.80;55.60
45137;DHT22;30894;51.740;19.498;2023-07-29T12:30:16;40.60;55.60
45137;DHT22;30894;51.740;19.498;2023-07-29T12:32:46;40.50;55.80
45137;DHT22;30894;51.740;19.498;2023-07-29T12:35:13;40.90;55.30
45137;DHT22;30894;51.740;19.498;2023-07-29T12:37:39;41.10;54.90
45137;DHT22;30894;51.740;19.498;2023-07-29T12:40:23;41.20;54.80
45137;DHT22;30894;51.740;19.498;2023-07-29T12:42:53;41.40;54.50
45137;DHT22;30894;51.740;19.498;2023-07-29T12:45:22;41.50;54.00
45137;DHT22;30894;51.740;19.498;2023-07-29T12:47:51;41.80;53.80
45137;DHT22;30894;51.740;19.498;2023-07-29T12:50:18;41.40;54.50
45137;DHT22;30894;51.740;19.498;2023-07-29T12:52:44;40.60;55.10
45137;DHT22;30894;51.740;19.498;2023-07-29T12:55:11;40.30;55.30
45137;DHT22;30894;51.740;19.498;2023-07-29T12:57:41;39.80;55.90
45137;DHT22;30894;51.740;19.498;2023-07-29T13:00:09;39.20;56.90
45137;DHT22;30894;51.740;19.498;2023-07-29T13:02:36;39.40;56.70
45137;DHT22;30894;51.740;19.498;2023-07-29T13:05:03;39.90;56.00
45137;DHT22;30894;51.740;19.498;2023-07-29T13:07:29;40.40;55.60
45137;DHT22;30894;51.740;19.498;2023-07-29T13:09:55;41.00;54.80
45137;DHT22;30894;51.740;19.498;2023-07-29T13:12:21;41.40;54.10
45137;DHT22;30894;51.740;19.498;2023-07-29T13:14:48;40.90;54.00
45137;DHT22;30894;51.740;19.498;2023-07-29T13:17:14;40.60;54.50
45137;DHT22;30894;51.740;19.498;2023-07-29T13:19:40;40.90;54.40
45137;DHT22;30894;51.740;19.498;2023-07-29T13:22:06;41.30;53.80
45137;DHT22;30894;51.740;19.498;2023-07-29T13:24:34;41.10;53.60
45137;DHT22;30894;51.740;19.498;2023-07-29T13:26:59;40.80;53.90
45137;DHT22;30894;51.740;19.498;2023-07-29T13:29:26;40.50;54.30
45137;DHT22;30894;51.740;19.498;2023-07-29T13:31:52;40.60;54.20
45137;DHT22;30894;51.740;19.498;2023-07-29T13:34:19;40.60;54.00
45137;DHT22;30894;51.740;19.498;2023-07-29T13:36:45;40.70;53.90
45137;DHT22;30894;51.740;19.498;2023-07-29T13:39:11;40.70;53.40
45137;DHT22;30894;51.740;19.498;2023-07-29T13:41:39;40.40;53.90
45137;DHT22;30894;51.740;19.498;2023-07-29T13:44:06;40.20;53.80
45137;DHT22;30894;51.740;19.498;2023-07-29T13:46:32;39.90;54.10
45137;DHT22;30894;51.740;19.498;2023-07-29T13:48:58;39.70;54.10
45137;DHT22;30894;51.740;19.498;2023-07-29T13:51:24;39.30;54.30
45137;DHT22;30894;51.740;19.498;2023-07-29T13:53:51;39.10;54.40
45137;DHT22;30894;51.740;19.498;2023-07-29T13:56:17;39.20;54.60
45137;DHT22;30894;51.740;19.498;2023-07-29T13:58:43;39.30;54.30
45137;DHT22;30894;51.740;19.498;2023-07-29T14:01:13;39.60;53.80
45137;DHT22;30894;51.740;19.498;2023-07-29T14:03:39;39.60;53.40
45137;DHT22;30894;51.740;19.498;2023-07-29T14:06:05;39.40;53.30
45137;DHT22;30894;51.740;19.498;2023-07-29T14:08:31;39.10;53.40
45137;DHT22;30894;51.740;19.498;2023-07-29T14:10:58;38.50;53.80
45137;DHT22;30894;51.740;19.498;2023-07-29T14:13:24;38.00;54.40
45137;DHT22;30894;51.740;19.498;2023-07-29T14:15:50;37.60;55.00
45137;DHT22;30894;51.740;19.498;2023-07-29T14:18:16;37.40;54.80
45137;DHT22;30894;51.740;19.498;2023-07-29T14:20:43;37.50;54.80
45137;DHT22;30894;51.740;19.498;2023-07-29T14:23:10;37.80;54.40
45137;DHT22;30894;51.740;19.498;2023-07-29T14:25:36;37.40;54.50
45137;DHT22;30894;51.740;19.498;2023-07-29T14:28:05;37.20;54.50
45137;DHT22;30894;51.740;19.498;2023-07-29T14:30:31;37.10;54.40
45137;DHT22;30894;51.740;19.498;2023-07-29T14:32:58;37.30;54.20
45137;DHT22;30894;51.740;19.498;2023-07-29T14:35:24;37.30;53.80
45137;DHT22;30894;51.740;19.498;2023-07-29T14:37:50;36.90;54.00
45137;DHT22;30894;51.740;19.498;2023-07-29T14:40:16;36.50;54.40
45137;DHT22;30894;51.740;19.498;2023-07-29T14:42:43;36.10;54.80
45137;DHT22;30894;51.740;19.498;2023-07-29T14:45:09;35.60;55.10
45137;DHT22;30894;51.740;19.498;2023-07-29T14:47:36;35.30;55.50
45137;DHT22;30894;51.740;19.498;2023-07-29T14:50:02;34.80;56.20
45137;DHT22;30894;51.740;19.498;2023-07-29T14:52:28;34.10;56.90
45137;DHT22;30894;51.740;19.498;2023-07-29T14:54:54;33.40;58.30
45137;DHT22;30894;51.740;19.498;2023-07-29T14:57:21;32.90;58.20
45137;DHT22;30894;51.740;19.498;2023-07-29T14:59:47;32.70;58.80
45137;DHT22;30894;51.740;19.498;2023-07-29T15:02:14;32.50;59.00
45137;DHT22;30894;51.740;19.498;2023-07-29T15:04:40;32.40;59.00
45137;DHT22;30894;51.740;19.498;2023-07-29T15:07:06;32.20;59.00
45137;DHT22;30894;51.740;19.498;2023-07-29T15:09:32;32.00;59.40
45137;DHT22;30894;51.740;19.498;2023-07-29T15:11:59;31.80;59.50
45137;DHT22;30894;51.740;19.498;2023-07-29T15:14:26;31.60;59.70
45137;DHT22;30894;51.740;19.498;2023-07-29T15:16:53;31.40;59.80
45137;DHT22;30894;51.740;19.498;2023-07-29T15:19:19;31.20;60.00
45137;DHT22;30894;51.740;19.498;2023-07-29T15:21:45;30.90;60.40
45137;DHT22;30894;51.740;19.498;2023-07-29T15:24:12;30.50;60.80
45137;DHT22;30894;51.740;19.498;2023-07-29T15:26:40;30.20;61.20
45137;DHT22;30894;51.740;19.498;2023-07-29T15:29:07;30.00;61.50
45137;DHT22;30894;51.740;19.498;2023-07-29T15:31:36;29.80;61.60
45137;DHT22;30894;51.740;19.498;2023-07-29T15:34:02;30.00;61.60
45137;DHT22;30894;51.740;19.498;2023-07-29T15:36:28;30.10;61.20
45137;DHT22;30894;51.740;19.498;2023-07-29T15:38:55;30.00;61.10